Time;durP1;ratioP1;P1;durP2;ratioP2;P2;SDS_P1;SDS_P2;PMS_P1;PMS_P2;Temp;Humidity;BMP_temperature;BMP_pressure;BME280_temperature;BME280_humidity;BME280_pressure;Samples;Min_cycle;Max_cycle;Signal;HPM_P1;HPM_P2
2022/04/24 00:01:55;;;;;;;24.87;18.87;;;;;;;;;;5056000;28;20414;-67
2022/04/24 00:04:23;;;;;;;22.00;18.63;;;;;;;;;;5054672;28;20925;-67
2022/04/24 00:06:51;;;;;;;21.67;16.80;;;;;;;;;;5055899;28;20417;-67
2022/04/24 00:09:17;;;;;;;21.00;18.80;;;;;;;;;;5055835;28;20399;-67
2022/04/24 00:11:43;;;;;;;20.20;18.20;;;;;;;;;;5055747;28;20411;-67
2022/04/24 00:14:10;;;;;;;20.07;18.07;;;;;;;;;;5055793;28;20422;-67
2022/04/24 00:16:40;;;;;;;20.80;18.13;;;;;;;;;;5055925;28;20417;-67
2022/04/24 00:19:06;;;;;;;20.77;18.60;;;;;;;;;;5055678;28;20914;-67
2022/04/24 00:21:32;;;;;;;22.97;19.20;;;;;;;;;;5055571;28;20467;-67
2022/04/24 00:23:58;;;;;;;21.37;19.07;;;;;;;;;;5055526;28;20399;-68
2022/04/24 00:26:24;;;;;;;23.87;19.93;;;;;;;;;;5055426;28;20514;-67
2022/04/24 00:28:50;;;;;;;22.57;20.20;;;;;;;;;;5055302;28;20427;-67
2022/04/24 00:31:16;;;;;;;22.53;20.17;;;;;;;;;;5055389;28;20457;-67
2022/04/24 00:33:42;;;;;;;21.90;19.70;;;;;;;;;;5055435;28;20407;-65
2022/04/24 00:36:08;;;;;;;23.93;21.53;;;;;;;;;;5055370;28;20458;-68
2022/04/24 00:38:35;;;;;;;25.40;22.70;;;;;;;;;;5055290;28;20920;-67
2022/04/24 00:41:01;;;;;;;25.13;21.83;;;;;;;;;;5054878;28;20497;-66
2022/04/24 00:43:27;;;;;;;20.27;17.67;;;;;;;;;;5055179;28;20418;-65
2022/04/24 00:45:54;;;;;;;16.40;13.67;;;;;;;;;;5055127;28;20418;-63
2022/04/24 00:48:20;;;;;;;8.70;8.20;;;;;;;;;;5055133;28;20440;-64
2022/04/24 00:50:46;;;;;;;5.17;4.70;;;;;;;;;;5054977;28;20395;-63
2022/04/24 00:53:12;;;;;;;4.10;4.00;;;;;;;;;;5053730;28;20503;-64
2022/04/24 00:55:38;;;;;;;2.47;2.33;;;;;;;;;;5054870;28;20465;-64
2022/04/24 00:58:05;;;;;;;1.93;1.93;;;;;;;;;;5054966;28;20769;-67
2022/04/24 01:00:30;;;;;;;1.73;1.30;;;;;;;;;;5054785;28;20473;-66
2022/04/24 01:02:59;;;;;;;1.13;1.13;;;;;;;;;;5054779;28;20848;-67
2022/04/24 01:05:25;;;;;;;1.17;1.03;;;;;;;;;;5055060;28;20441;-66
2022/04/24 01:07:51;;;;;;;0.70;0.70;;;;;;;;;;5054806;28;20408;-67
2022/04/24 01:10:17;;;;;;;1.07;0.80;;;;;;;;;;5054580;28;20399;-65
2022/04/24 01:12:42;;;;;;;0.60;0.60;;;;;;;;;;5054632;28;20439;-66
2022/04/24 01:15:09;;;;;;;0.93;0.93;;;;;;;;;;5054546;28;20399;-67
2022/04/24 01:17:37;;;;;;;0.87;0.87;;;;;;;;;;5054532;28;20407;-64
2022/04/24 01:20:04;;;;;;;0.70;0.70;;;;;;;;;;5054385;28;20463;-64
2022/04/24 01:22:30;;;;;;;4.63;0.70;;;;;;;;;;5054457;28;20427;-67
2022/04/24 01:24:56;;;;;;;0.80;0.80;;;;;;;;;;5054588;28;20407;-66
2022/04/24 01:27:22;;;;;;;8.13;0.63;;;;;;;;;;5054234;28;20411;-66
2022/04/24 01:29:48;;;;;;;2.63;0.50;;;;;;;;;;5052982;28;20419;-66
2022/04/24 01:32:16;;;;;;;0.83;0.47;;;;;;;;;;5054184;28;20786;-65
2022/04/24 01:34:42;;;;;;;0.53;0.53;;;;;;;;;;5054277;28;20392;-67
2022/04/24 01:37:08;;;;;;;1.13;0.70;;;;;;;;;;5054287;28;20904;-66
2022/04/24 01:39:34;;;;;;;0.77;0.60;;;;;;;;;;5054210;28;20473;-66
2022/04/24 01:42:00;;;;;;;0.93;0.83;;;;;;;;;;5054052;28;20520;-67
2022/04/24 01:44:26;;;;;;;0.70;0.57;;;;;;;;;;5054161;28;20403;-68
2022/04/24 01:46:53;;;;;;;0.60;0.60;;;;;;;;;;5054002;28;20786;-68
2022/04/24 01:49:19;;;;;;;0.97;0.60;;;;;;;;;;5054355;28;20772;-67
2022/04/24 01:51:46;;;;;;;0.57;0.50;;;;;;;;;;5053451;28;20403;-66
2022/04/24 01:54:12;;;;;;;0.67;0.50;;;;;;;;;;5053963;28;20883;-68
2022/04/24 01:56:38;;;;;;;1.60;0.40;;;;;;;;;;5053902;28;20518;-67
2022/04/24 01:59:04;;;;;;;0.60;0.60;;;;;;;;;;5053817;28;20447;-68
2022/04/24 02:01:30;;;;;;;0.60;0.60;;;;;;;;;;5053682;28;20477;-67
2022/04/24 02:03:56;;;;;;;0.80;0.80;;;;;;;;;;5053719;28;20403;-67
2022/04/24 02:06:22;;;;;;;0.50;0.50;;;;;;;;;;5053702;28;20905;-67
2022/04/24 02:08:48;;;;;;;0.73;0.73;;;;;;;;;;5053666;28;20390;-67
2022/04/24 02:11:13;;;;;;;2.10;0.60;;;;;;;;;;5053521;28;20407;-67
2022/04/24 02:13:39;;;;;;;0.60;0.50;;;;;;;;;;5053663;28;20414;-67
2022/04/24 02:16:05;;;;;;;0.50;0.50;;;;;;;;;;5053528;28;20415;-66
2022/04/24 02:18:33;;;;;;;0.43;0.43;;;;;;;;;;5053511;28;20474;-67
2022/04/24 02:20:59;;;;;;;0.60;0.60;;;;;;;;;;5053364;28;20968;-67
2022/04/24 02:23:25;;;;;;;2.67;0.60;;;;;;;;;;5053419;28;20410;-67
2022/04/24 02:25:51;;;;;;;2.93;0.73;;;;;;;;;;5053407;28;20389;-67
2022/04/24 02:28:17;;;;;;;0.40;0.40;;;;;;;;;;5053290;28;20456;-67
2022/04/24 02:30:43;;;;;;;1.43;0.60;;;;;;;;;;5053339;28;20857;-67
2022/04/24 02:33:09;;;;;;;4.63;0.90;;;;;;;;;;5053267;28;20438;-67
2022/04/24 02:35:35;;;;;;;0.93;0.50;;;;;;;;;;5053183;28;20411;-67
2022/04/24 02:38:01;;;;;;;0.60;0.60;;;;;;;;;;5052012;28;20426;-67
2022/04/24 02:40:27;;;;;;;4.53;1.00;;;;;;;;;;5052846;28;20844;-69
2022/04/24 02:42:53;;;;;;;0.50;0.40;;;;;;;;;;5053417;28;20381;-67
2022/04/24 02:45:20;;;;;;;1.60;0.40;;;;;;;;;;5053166;28;20382;-67
2022/04/24 02:47:46;;;;;;;2.33;0.50;;;;;;;;;;5053123;28;20787;-66
2022/04/24 02:50:13;;;;;;;0.60;0.60;;;;;;;;;;5053095;28;20418;-67
2022/04/24 02:52:49;;;;;;;1.27;0.50;;;;;;;;;;5053045;28;20807;-67
2022/04/24 02:55:15;;;;;;;0.97;0.70;;;;;;;;;;5053082;28;20417;-66
2022/04/24 02:57:42;;;;;;;3.80;0.73;;;;;;;;;;5053051;28;20891;-67
2022/04/24 03:00:08;;;;;;;1.73;0.50;;;;;;;;;;5052928;28;20988;-67
2022/04/24 03:02:44;;;;;;;0.60;0.43;;;;;;;;;;5052963;28;20395;-66
2022/04/24 03:05:13;;;;;;;2.40;0.60;;;;;;;;;;5055928;28;20438;-67
2022/04/24 03:07:39;;;;;;;0.60;0.40;;;;;;;;;;5055769;28;20476;-69
2022/04/24 03:10:08;;;;;;;1.90;0.50;;;;;;;;;;5056905;28;20407;-66
2022/04/24 03:12:34;;;;;;;0.70;0.50;;;;;;;;;;5056811;28;20414;-66
2022/04/24 03:15:00;;;;;;;0.40;0.40;;;;;;;;;;5057100;28;20494;-66
2022/04/24 03:17:26;;;;;;;0.50;0.50;;;;;;;;;;5055559;28;20431;-67
2022/04/24 03:19:52;;;;;;;0.73;0.50;;;;;;;;;;5056681;28;20581;-66
2022/04/24 03:22:19;;;;;;;0.40;0.40;;;;;;;;;;5055488;28;20430;-66
2022/04/24 03:24:45;;;;;;;0.67;0.67;;;;;;;;;;5056777;28;20461;-66
2022/04/24 03:27:12;;;;;;;1.70;0.40;;;;;;;;;;5056862;28;20426;-66
2022/04/24 03:29:38;;;;;;;2.37;0.40;;;;;;;;;;5056696;28;20383;-66
2022/04/24 03:32:04;;;;;;;0.50;0.50;;;;;;;;;;5055297;28;20517;-66
2022/04/24 03:34:31;;;;;;;0.40;0.40;;;;;;;;;;5056593;28;20403;-65
2022/04/24 03:36:57;;;;;;;0.60;0.40;;;;;;;;;;5056724;28;20549;-67
2022/04/24 03:39:23;;;;;;;0.40;0.40;;;;;;;;;;5056446;28;20490;-65
2022/04/24 03:41:49;;;;;;;1.17;0.93;;;;;;;;;;5056282;28;20459;-67
2022/04/24 03:44:15;;;;;;;1.70;0.40;;;;;;;;;;5056366;28;20786;-66
2022/04/24 03:46:41;;;;;;;6.03;0.50;;;;;;;;;;5056241;28;20421;-67
2022/04/24 03:49:07;;;;;;;0.40;0.40;;;;;;;;;;5056288;28;20498;-66
2022/04/24 03:51:33;;;;;;;1.23;0.97;;;;;;;;;;5056140;28;20403;-67
2022/04/24 03:53:59;;;;;;;0.50;0.50;;;;;;;;;;5056239;28;20414;-67
2022/04/24 03:56:25;;;;;;;0.87;0.50;;;;;;;;;;5056027;28;20454;-67
2022/04/24 03:58:51;;;;;;;0.60;0.60;;;;;;;;;;5056340;28;20411;-67
2022/04/24 04:01:17;;;;;;;0.60;0.60;;;;;;;;;;5055982;28;20466;-66
2022/04/24 04:03:43;;;;;;;0.60;0.60;;;;;;;;;;5055958;28;20498;-66
2022/04/24 04:06:09;;;;;;;0.50;0.50;;;;;;;;;;5055991;28;20446;-67
2022/04/24 04:08:35;;;;;;;0.50;0.50;;;;;;;;;;5055824;28;20406;-66
2022/04/24 04:11:01;;;;;;;2.30;0.70;;;;;;;;;;5055769;28;20419;-67
2022/04/24 04:13:27;;;;;;;0.57;0.40;;;;;;;;;;5055869;28;20556;-67
2022/04/24 04:15:53;;;;;;;2.03;0.80;;;;;;;;;;5055188;28;20447;-67
2022/04/24 04:18:19;;;;;;;2.13;0.43;;;;;;;;;;5055672;28;20411;-67
2022/04/24 04:20:45;;;;;;;1.80;0.50;;;;;;;;;;5055558;28;20458;-67
2022/04/24 04:23:11;;;;;;;0.50;0.50;;;;;;;;;;5055827;28;20490;-66
2022/04/24 04:25:37;;;;;;;0.93;0.70;;;;;;;;;;5055496;28;20811;-67
2022/04/24 04:28:03;;;;;;;0.60;0.60;;;;;;;;;;5055533;28;20429;-67
2022/04/24 04:30:29;;;;;;;1.03;0.70;;;;;;;;;;5055447;28;20403;-66
2022/04/24 04:32:55;;;;;;;0.67;0.67;;;;;;;;;;5055407;28;20739;-67
2022/04/24 04:35:23;;;;;;;0.80;0.60;;;;;;;;;;5055569;28;20403;-66
2022/04/24 04:37:50;;;;;;;1.27;1.17;;;;;;;;;;5055314;28;20411;-66
2022/04/24 04:40:18;;;;;;;0.57;0.57;;;;;;;;;;5054956;28;20828;-66
2022/04/24 04:42:44;;;;;;;1.50;0.50;;;;;;;;;;5055449;28;20451;-66
2022/04/24 04:45:10;;;;;;;0.60;0.60;;;;;;;;;;5055485;28;20486;-66
2022/04/24 04:47:37;;;;;;;1.10;0.60;;;;;;;;;;5055150;28;20446;-65
2022/04/24 04:50:03;;;;;;;0.73;0.70;;;;;;;;;;5055418;28;20404;-65
2022/04/24 04:52:29;;;;;;;0.57;0.57;;;;;;;;;;5055037;28;20407;-64
2022/04/24 04:54:55;;;;;;;1.73;0.90;;;;;;;;;;5054993;28;20399;-65
2022/04/24 04:57:21;;;;;;;1.93;0.87;;;;;;;;;;5055042;28;20422;-67
2022/04/24 04:59:47;;;;;;;0.80;0.80;;;;;;;;;;5055051;28;20477;-67
2022/04/24 05:02:13;;;;;;;1.23;0.53;;;;;;;;;;5054844;28;20423;-67
2022/04/24 05:04:43;;;;;;;2.30;0.70;;;;;;;;;;5054906;28;20403;-67
2022/04/24 05:07:09;;;;;;;1.13;0.50;;;;;;;;;;5054987;28;20403;-67
2022/04/24 05:09:35;;;;;;;2.23;0.80;;;;;;;;;;5054680;28;20410;-66
2022/04/24 05:12:00;;;;;;;0.60;0.60;;;;;;;;;;5054706;28;20458;-64
2022/04/24 05:14:26;;;;;;;0.73;0.73;;;;;;;;;;5054646;28;20431;-63
2022/04/24 05:16:52;;;;;;;1.27;0.80;;;;;;;;;;5054845;28;20415;-65
2022/04/24 05:19:19;;;;;;;0.70;0.70;;;;;;;;;;5054535;28;20415;-64
2022/04/24 05:21:45;;;;;;;0.80;0.80;;;;;;;;;;5054428;28;20458;-67
2022/04/24 05:24:11;;;;;;;0.70;0.70;;;;;;;;;;5054485;28;20498;-64
2022/04/24 05:26:37;;;;;;;1.00;1.00;;;;;;;;;;5053474;28;20419;-66
2022/04/24 05:29:03;;;;;;;2.00;1.87;;;;;;;;;;5054374;28;20774;-67
2022/04/24 05:31:30;;;;;;;5.77;1.30;;;;;;;;;;5052998;28;20409;-66
2022/04/24 05:33:56;;;;;;;2.70;1.23;;;;;;;;;;5054519;28;20569;-64
2022/04/24 05:36:22;;;;;;;1.00;1.00;;;;;;;;;;5054133;28;20442;-67
2022/04/24 05:38:48;;;;;;;2.47;2.00;;;;;;;;;;5054123;28;20414;-66
2022/04/24 05:41:14;;;;;;;1.23;1.13;;;;;;;;;;5053959;28;20490;-64
2022/04/24 05:43:41;;;;;;;0.80;0.80;;;;;;;;;;5054288;28;20400;-64
2022/04/24 05:46:07;;;;;;;1.10;0.90;;;;;;;;;;5054262;28;20418;-65
2022/04/24 05:48:32;;;;;;;3.17;1.83;;;;;;;;;;5053890;28;20407;-64
2022/04/24 05:50:58;;;;;;;3.20;3.00;;;;;;;;;;5053937;28;20509;-64
2022/04/24 05:53:24;;;;;;;3.40;3.30;;;;;;;;;;5053860;28;20885;-63
2022/04/24 05:55:50;;;;;;;1.00;1.00;;;;;;;;;;5052588;28;20467;-63
2022/04/24 05:58:17;;;;;;;0.87;0.60;;;;;;;;;;5053801;28;20489;-63
2022/04/24 06:00:43;;;;;;;1.50;0.70;;;;;;;;;;5053779;28;20470;-63
2022/04/24 06:03:09;;;;;;;0.70;0.70;;;;;;;;;;5053732;28;20516;-63
2022/04/24 06:05:35;;;;;;;1.03;1.00;;;;;;;;;;5054028;28;20395;-63
2022/04/24 06:08:01;;;;;;;0.70;0.70;;;;;;;;;;5053716;28;20887;-63
2022/04/24 06:10:27;;;;;;;1.00;1.00;;;;;;;;;;5053562;28;20857;-63
2022/04/24 06:12:54;;;;;;;1.00;1.00;;;;;;;;;;5052268;28;20443;-64
2022/04/24 06:15:24;;;;;;;0.70;0.70;;;;;;;;;;5053578;28;20410;-64
2022/04/24 06:17:51;;;;;;;2.40;0.80;;;;;;;;;;5053790;28;20391;-65
2022/04/24 06:20:18;;;;;;;5.47;1.20;;;;;;;;;;5053369;28;20451;-64
2022/04/24 06:22:54;;;;;;;0.97;0.97;;;;;;;;;;5053346;28;20385;-65
2022/04/24 06:25:21;;;;;;;1.43;1.03;;;;;;;;;;5053330;28;20387;-64
2022/04/24 06:27:48;;;;;;;1.20;1.10;;;;;;;;;;5053306;28;20402;-60
2022/04/24 06:30:15;;;;;;;0.80;0.80;;;;;;;;;;5053475;28;20399;-66
2022/04/24 06:32:41;;;;;;;1.03;1.03;;;;;;;;;;5053248;28;20498;-67
2022/04/24 06:35:11;;;;;;;2.03;1.97;;;;;;;;;;5053300;28;20399;-69
2022/04/24 06:37:38;;;;;;;4.70;3.63;;;;;;;;;;5052991;28;20414;-68
2022/04/24 06:40:05;;;;;;;2.97;2.87;;;;;;;;;;5053204;28;20433;-69
2022/04/24 06:42:31;;;;;;;1.53;1.53;;;;;;;;;;5051905;28;20478;-69
2022/04/24 06:44:57;;;;;;;9.53;2.60;;;;;;;;;;5053222;28;20799;-67
2022/04/24 06:47:27;;;;;;;5.60;1.87;;;;;;;;;;5053201;28;20472;-65
2022/04/24 06:49:54;;;;;;;3.30;3.10;;;;;;;;;;5053129;28;20921;-66
2022/04/24 06:52:20;;;;;;;3.23;3.13;;;;;;;;;;5053143;28;20501;-66
2022/04/24 06:54:46;;;;;;;1.83;1.73;;;;;;;;;;5053173;28;20976;-65
2022/04/24 06:57:12;;;;;;;2.30;2.20;;;;;;;;;;5053266;28;20425;-64
2022/04/24 06:59:38;;;;;;;2.03;1.93;;;;;;;;;;5052959;28;20789;-65
2022/04/24 07:02:04;;;;;;;1.33;1.33;;;;;;;;;;5053251;28;20414;-66
2022/04/24 07:04:30;;;;;;;0.77;0.77;;;;;;;;;;5053083;28;20465;-65
2022/04/24 07:06:56;;;;;;;1.10;1.10;;;;;;;;;;5053007;28;20407;-67
2022/04/24 07:09:22;;;;;;;1.93;1.10;;;;;;;;;;5053265;28;20469;-63
2022/04/24 07:11:48;;;;;;;23.73;21.13;;;;;;;;;;5052933;28;20410;-65
2022/04/24 07:14:14;;;;;;;3.90;0.90;;;;;;;;;;5052916;28;20499;-64
2022/04/24 07:16:41;;;;;;;3.27;1.70;;;;;;;;;;5052976;28;20438;-66
2022/04/24 07:19:07;;;;;;;2.47;2.37;;;;;;;;;;5052784;28;20439;-64
2022/04/24 07:21:33;;;;;;;1.10;1.10;;;;;;;;;;5053083;28;20816;-68
2022/04/24 07:23:59;;;;;;;1.00;1.00;;;;;;;;;;5052933;28;20521;-70
2022/04/24 07:26:25;;;;;;;0.83;0.83;;;;;;;;;;5052786;28;20437;-67
2022/04/24 07:28:51;;;;;;;0.93;0.93;;;;;;;;;;5052793;28;20399;-67
2022/04/24 07:31:19;;;;;;;1.00;0.80;;;;;;;;;;5052683;28;20484;-67
2022/04/24 07:33:45;;;;;;;2.00;0.93;;;;;;;;;;5052858;28;20401;-69
2022/04/24 07:36:11;;;;;;;0.80;0.80;;;;;;;;;;5052713;28;20782;-63
2022/04/24 07:38:37;;;;;;;2.47;2.47;;;;;;;;;;5053021;28;20408;-64
2022/04/24 07:41:03;;;;;;;1.90;1.03;;;;;;;;;;5052588;28;20486;-67
2022/04/24 07:43:29;;;;;;;1.20;1.20;;;;;;;;;;5052786;28;20771;-67
2022/04/24 07:45:55;;;;;;;0.90;0.90;;;;;;;;;;5052710;28;20424;-63
2022/04/24 07:48:21;;;;;;;1.50;1.50;;;;;;;;;;5052715;28;20507;-67
2022/04/24 07:50:49;;;;;;;1.20;1.20;;;;;;;;;;5054347;28;20467;-65
2022/04/24 07:53:16;;;;;;;1.83;0.63;;;;;;;;;;5056183;28;20431;-63
2022/04/24 07:55:45;;;;;;;4.63;0.80;;;;;;;;;;5056319;28;20411;-65
2022/04/24 07:58:11;;;;;;;1.10;1.00;;;;;;;;;;5055959;28;20407;-63
2022/04/24 08:00:38;;;;;;;0.97;0.97;;;;;;;;;;5056128;28;20470;-64
2022/04/24 08:03:05;;;;;;;1.00;1.00;;;;;;;;;;5055900;28;20398;-64
2022/04/24 08:05:31;;;;;;;1.90;1.10;;;;;;;;;;5056218;28;20411;-68
2022/04/24 08:07:59;;;;;;;0.60;0.60;;;;;;;;;;5055975;28;20779;-63
2022/04/24 08:10:26;;;;;;;0.43;0.43;;;;;;;;;;5055989;28;20414;-62
2022/04/24 08:12:52;;;;;;;2.33;0.70;;;;;;;;;;5055853;28;20400;-68
2022/04/24 08:15:19;;;;;;;1.10;1.10;;;;;;;;;;5055834;28;20414;-70
2022/04/24 08:17:45;;;;;;;1.17;0.60;;;;;;;;;;5055741;28;20399;-71
2022/04/24 08:20:12;;;;;;;1.00;1.00;;;;;;;;;;5055720;28;20480;-71
2022/04/24 08:22:39;;;;;;;1.50;0.60;;;;;;;;;;5055714;28;20490;-66
2022/04/24 08:25:06;;;;;;;0.70;0.70;;;;;;;;;;5055818;28;20486;-68
2022/04/24 08:27:32;;;;;;;0.80;0.80;;;;;;;;;;5055467;28;20459;-64
2022/04/24 08:29:58;;;;;;;0.50;0.50;;;;;;;;;;5055533;28;20406;-64
2022/04/24 08:32:25;;;;;;;0.70;0.70;;;;;;;;;;5055533;28;20889;-65
2022/04/24 08:34:51;;;;;;;2.67;2.57;;;;;;;;;;5055702;28;20465;-68
2022/04/24 08:37:17;;;;;;;0.60;0.60;;;;;;;;;;5055362;28;20419;-68
2022/04/24 08:39:43;;;;;;;2.70;1.27;;;;;;;;;;5054094;28;20985;-65
2022/04/24 08:42:09;;;;;;;0.67;0.67;;;;;;;;;;5055196;28;20840;-63
2022/04/24 08:44:36;;;;;;;3.30;0.50;;;;;;;;;;5054178;28;20585;-66
2022/04/24 08:47:03;;;;;;;0.57;0.57;;;;;;;;;;5055504;28;20411;-65
2022/04/24 08:49:33;;;;;;;0.87;0.70;;;;;;;;;;5055191;28;20534;-63
2022/04/24 08:52:00;;;;;;;5.90;0.80;;;;;;;;;;5054074;28;20399;-64
2022/04/24 08:54:27;;;;;;;0.50;0.50;;;;;;;;;;5055088;28;20976;-65
2022/04/24 08:56:56;;;;;;;0.50;0.50;;;;;;;;;;5054929;28;20784;-63
2022/04/24 08:59:23;;;;;;;0.67;0.67;;;;;;;;;;5054949;28;20556;-64
2022/04/24 09:01:50;;;;;;;0.93;0.63;;;;;;;;;;5053579;28;20893;-64
2022/04/24 09:04:16;;;;;;;0.40;0.40;;;;;;;;;;5054710;28;20513;-65
2022/04/24 09:06:42;;;;;;;0.50;0.50;;;;;;;;;;5054816;28;20408;-72
2022/04/24 09:09:09;;;;;;;0.57;0.57;;;;;;;;;;5053607;28;20841;-71
2022/04/24 09:11:36;;;;;;;0.77;0.77;;;;;;;;;;5054976;28;20440;-64
2022/04/24 09:14:15;;;;;;;0.50;0.50;;;;;;;;;;5054723;28;20472;-63
2022/04/24 09:16:51;;;;;;;1.83;0.50;;;;;;;;;;5054601;28;20862;-64
2022/04/24 09:19:17;;;;;;;0.53;0.50;;;;;;;;;;5054788;28;20395;-64
2022/04/24 09:21:44;;;;;;;0.60;0.60;;;;;;;;;;5054806;28;20469;-63
2022/04/24 09:24:10;;;;;;;0.70;0.70;;;;;;;;;;5054492;28;20450;-70
2022/04/24 09:26:36;;;;;;;0.60;0.60;;;;;;;;;;5054480;28;20394;-64
2022/04/24 09:29:10;;;;;;;0.60;0.60;;;;;;;;;;5054391;28;20404;-65
2022/04/24 09:31:36;;;;;;;1.63;0.53;;;;;;;;;;5054385;28;20410;-63
2022/04/24 09:34:02;;;;;;;1.90;0.60;;;;;;;;;;5054336;28;20403;-62
2022/04/24 09:36:28;;;;;;;0.60;0.60;;;;;;;;;;5054199;28;20420;-66
2022/04/24 09:38:54;;;;;;;0.93;0.70;;;;;;;;;;5054159;28;20406;-64
2022/04/24 09:41:21;;;;;;;0.73;0.73;;;;;;;;;;5053819;28;20486;-66
2022/04/24 09:43:47;;;;;;;0.70;0.70;;;;;;;;;;5054054;28;20916;-65
2022/04/24 09:46:13;;;;;;;1.03;0.70;;;;;;;;;;5053236;28;20778;-71
2022/04/24 09:48:39;;;;;;;0.63;0.63;;;;;;;;;;5052928;28;20411;-70
2022/04/24 09:51:07;;;;;;;1.50;0.50;;;;;;;;;;5054262;28;20819;-67
2022/04/24 09:53:41;;;;;;;0.60;0.60;;;;;;;;;;5054236;28;20418;-70
2022/04/24 09:56:09;;;;;;;0.90;0.90;;;;;;;;;;5054054;28;20918;-68
2022/04/24 09:58:37;;;;;;;1.03;1.03;;;;;;;;;;5054041;28;20410;-68
2022/04/24 10:01:05;;;;;;;0.70;0.70;;;;;;;;;;5053779;28;20466;-69
2022/04/24 10:03:31;;;;;;;1.13;1.13;;;;;;;;;;5053950;28;20765;-68
2022/04/24 10:05:57;;;;;;;0.90;0.90;;;;;;;;;;5053771;28;20415;-68
2022/04/24 10:08:23;;;;;;;0.80;0.80;;;;;;;;;;5053855;28;20404;-64
2022/04/24 10:10:50;;;;;;;0.90;0.90;;;;;;;;;;5053745;28;20411;-64
2022/04/24 10:13:17;;;;;;;2.00;0.80;;;;;;;;;;5053306;28;20467;-69
2022/04/24 10:15:46;;;;;;;0.70;0.70;;;;;;;;;;5053674;28;20416;-66
2022/04/24 10:18:17;;;;;;;1.47;0.80;;;;;;;;;;5053598;28;20497;-70
2022/04/24 10:21:22;;;;;;;0.70;0.70;;;;;;;;;;5053773;28;20473;-68
2022/04/24 10:23:48;;;;;;;1.90;0.90;;;;;;;;;;5031547;28;20909;-64
2022/04/24 10:26:18;;;;;;;0.50;0.50;;;;;;;;;;5043094;28;20784;-66
2022/04/24 10:28:46;;;;;;;0.80;0.80;;;;;;;;;;5053708;28;20410;-69
2022/04/24 10:31:12;;;;;;;0.90;0.90;;;;;;;;;;5053385;28;20426;-70
2022/04/24 10:33:40;;;;;;;0.57;0.57;;;;;;;;;;5053452;28;20488;-68
2022/04/24 10:36:06;;;;;;;0.60;0.60;;;;;;;;;;5053319;28;20391;-70
2022/04/24 10:38:33;;;;;;;0.80;0.80;;;;;;;;;;5053303;28;20406;-68
2022/04/24 10:41:01;;;;;;;0.63;0.50;;;;;;;;;;5053028;28;20497;-67
2022/04/24 10:43:37;;;;;;;1.70;1.00;;;;;;;;;;5053220;28;20411;-66
2022/04/24 10:46:04;;;;;;;0.80;0.80;;;;;;;;;;5053154;28;20410;-68
2022/04/24 10:48:35;;;;;;;0.97;0.97;;;;;;;;;;5053133;28;20482;-66
2022/04/24 10:51:01;;;;;;;1.63;1.10;;;;;;;;;;5053446;28;20437;-66
2022/04/24 10:53:27;;;;;;;2.00;1.17;;;;;;;;;;5053396;28;20406;-65
2022/04/24 10:56:04;;;;;;;1.00;1.00;;;;;;;;;;5053074;28;20403;-66
2022/04/24 10:58:30;;;;;;;1.00;1.00;;;;;;;;;;5053260;28;20490;-67
2022/04/24 11:01:08;;;;;;;1.17;1.07;;;;;;;;;;5053034;28;20581;-68
2022/04/24 11:03:39;;;;;;;1.20;0.90;;;;;;;;;;5053355;28;20449;-67
2022/04/24 11:06:05;;;;;;;0.80;0.80;;;;;;;;;;5053311;28;20410;-69
2022/04/24 11:08:41;;;;;;;0.90;0.90;;;;;;;;;;5053114;28;20407;-67
2022/04/24 11:11:07;;;;;;;0.70;0.70;;;;;;;;;;5053078;28;20748;-66
2022/04/24 11:13:33;;;;;;;0.73;0.70;;;;;;;;;;5053355;28;20410;-68
2022/04/24 11:16:00;;;;;;;0.80;0.80;;;;;;;;;;5053009;28;20398;-69
2022/04/24 11:18:27;;;;;;;0.70;0.70;;;;;;;;;;5052995;28;20485;-71
2022/04/24 11:20:56;;;;;;;1.00;1.00;;;;;;;;;;5052923;28;20953;-67
2022/04/24 11:23:25;;;;;;;0.70;0.70;;;;;;;;;;5052934;28;20405;-69
2022/04/24 11:25:58;;;;;;;0.80;0.80;;;;;;;;;;5054853;28;20395;-69
2022/04/24 11:28:34;;;;;;;0.80;0.80;;;;;;;;;;5056684;28;20502;-67
2022/04/24 11:31:20;;;;;;;0.83;0.83;;;;;;;;;;5056782;28;20430;-66
2022/04/24 11:33:56;;;;;;;0.87;0.87;;;;;;;;;;5056547;28;20446;-68
2022/04/24 11:36:24;;;;;;;1.40;0.80;;;;;;;;;;5056559;28;20415;-69
2022/04/24 11:38:50;;;;;;;0.90;0.90;;;;;;;;;;5056480;28;20774;-68
2022/04/24 11:41:17;;;;;;;0.80;0.80;;;;;;;;;;5056133;28;20490;-69
2022/04/24 11:43:43;;;;;;;0.53;0.53;;;;;;;;;;5056409;28;20407;-66
2022/04/24 11:50:13;;;;;;;0.60;0.60;;;;;;;;;;5056330;28;21012;-66
2022/04/24 11:51:50;;;;;;;0.70;0.70;;;;;;;;;;5055987;28;20436;-67
2022/04/24 11:54:16;;;;;;;0.63;0.63;;;;;;;;;;5056179;28;20435;-69
2022/04/24 11:56:43;;;;;;;0.60;0.60;;;;;;;;;;5056343;28;20779;-68
2022/04/24 11:59:21;;;;;;;1.00;1.00;;;;;;;;;;5056059;28;20894;-68
2022/04/24 12:01:58;;;;;;;0.63;0.63;;;;;;;;;;5055900;28;20561;-67
2022/04/24 12:04:26;;;;;;;0.70;0.70;;;;;;;;;;5056280;28;20480;-67
2022/04/24 12:06:59;;;;;;;0.60;0.60;;;;;;;;;;5056221;28;20415;-68
2022/04/24 12:09:25;;;;;;;0.70;0.70;;;;;;;;;;5055883;28;20403;-66
2022/04/24 12:11:51;;;;;;;0.50;0.50;;;;;;;;;;5056012;28;20472;-64
2022/04/24 12:14:18;;;;;;;0.77;0.53;;;;;;;;;;5055858;28;20775;-67
2022/04/24 12:16:48;;;;;;;1.87;1.87;;;;;;;;;;5056017;28;20407;-68
2022/04/24 12:19:18;;;;;;;0.77;0.77;;;;;;;;;;5055691;28;20410;-67
2022/04/24 12:21:46;;;;;;;0.70;0.70;;;;;;;;;;5055595;28;20524;-67
2022/04/24 12:24:12;;;;;;;1.40;0.77;;;;;;;;;;5055568;28;20902;-63
2022/04/24 12:26:51;;;;;;;0.93;0.60;;;;;;;;;;5055527;28;20505;-66
2022/04/24 12:29:17;;;;;;;1.93;0.67;;;;;;;;;;5055430;28;20894;-66
2022/04/24 12:31:43;;;;;;;0.90;0.90;;;;;;;;;;5054341;28;20423;-67
2022/04/24 12:34:10;;;;;;;1.00;1.00;;;;;;;;;;5055404;28;20926;-67
2022/04/24 12:36:36;;;;;;;0.90;0.83;;;;;;;;;;5055214;28;20493;-67
2022/04/24 12:39:08;;;;;;;0.60;0.60;;;;;;;;;;5055601;28;20445;-67
2022/04/24 12:41:37;;;;;;;0.80;0.80;;;;;;;;;;5055123;28;20574;-66
2022/04/24 12:44:04;;;;;;;1.17;0.60;;;;;;;;;;5055428;28;20415;-69
2022/04/24 12:46:31;;;;;;;1.10;1.10;;;;;;;;;;5055383;28;20906;-69
2022/04/24 12:48:57;;;;;;;0.97;0.97;;;;;;;;;;5054013;28;20423;-61
2022/04/24 12:51:24;;;;;;;0.70;0.70;;;;;;;;;;5055183;28;20418;-63
2022/04/24 12:53:50;;;;;;;1.07;0.80;;;;;;;;;;5055176;28;20403;-63
2022/04/24 12:56:17;;;;;;;0.87;0.77;;;;;;;;;;5054980;28;20421;-62
2022/04/24 12:58:42;;;;;;;1.60;1.00;;;;;;;;;;5054963;28;20407;-63
2022/04/24 13:01:12;;;;;;;1.23;1.10;;;;;;;;;;5054864;28;20834;-63
2022/04/24 13:03:39;;;;;;;2.57;2.47;;;;;;;;;;5054868;28;20378;-62
2022/04/24 13:06:05;;;;;;;1.20;1.20;;;;;;;;;;5054899;28;20947;-61
2022/04/24 13:08:31;;;;;;;5.33;4.93;;;;;;;;;;5054827;28;20414;-62
2022/04/24 13:10:57;;;;;;;2.80;2.30;;;;;;;;;;5054660;28;20782;-63
2022/04/24 13:13:23;;;;;;;1.43;1.20;;;;;;;;;;5054778;28;20418;-62
2022/04/24 13:18:34;;;;;;;1.27;1.00;;;;;;;;;;5054738;28;20500;-63
2022/04/24 13:21:00;;;;;;;1.80;1.10;;;;;;;;;;5054552;28;20473;-62
2022/04/24 13:23:26;;;;;;;2.10;1.07;;;;;;;;;;5054620;28;20776;-65
2022/04/24 13:25:53;;;;;;;0.97;0.97;;;;;;;;;;5053150;28;20507;-63
2022/04/24 13:28:20;;;;;;;3.10;1.73;;;;;;;;;;5054414;28;20418;-64
2022/04/24 13:30:47;;;;;;;1.10;1.10;;;;;;;;;;5054571;28;20469;-64
2022/04/24 13:33:14;;;;;;;0.97;0.97;;;;;;;;;;5054349;28;20410;-71
2022/04/24 13:35:40;;;;;;;1.83;1.73;;;;;;;;;;5054584;28;20437;-70
2022/04/24 13:38:18;;;;;;;1.83;1.83;;;;;;;;;;5054318;28;20407;-67
2022/04/24 13:40:44;;;;;;;0.87;0.87;;;;;;;;;;5053913;28;20496;-70
2022/04/24 13:43:11;;;;;;;1.10;1.10;;;;;;;;;;5054122;28;20411;-68
2022/04/24 13:45:37;;;;;;;0.93;0.93;;;;;;;;;;5054030;28;20407;-70
2022/04/24 13:48:04;;;;;;;1.73;1.23;;;;;;;;;;5053515;28;20472;-69
2022/04/24 13:50:30;;;;;;;1.60;1.60;;;;;;;;;;5053995;28;20414;-69
2022/04/24 13:52:57;;;;;;;1.10;1.10;;;;;;;;;;5053951;28;20416;-70
2022/04/24 13:55:23;;;;;;;1.20;1.20;;;;;;;;;;5054037;28;20870;-70
2022/04/24 13:57:49;;;;;;;1.13;1.13;;;;;;;;;;5053799;28;20415;-72
2022/04/24 14:00:15;;;;;;;1.37;1.37;;;;;;;;;;5053781;28;20921;-71
2022/04/24 14:02:41;;;;;;;1.03;1.03;;;;;;;;;;5053705;28;20496;-70
2022/04/24 14:05:08;;;;;;;6.30;4.50;;;;;;;;;;5053578;28;20411;-69
2022/04/24 14:07:34;;;;;;;1.00;1.00;;;;;;;;;;5053611;28;20407;-68
2022/04/24 14:10:00;;;;;;;1.23;1.03;;;;;;;;;;5053596;28;20403;-69
2022/04/24 14:12:27;;;;;;;1.30;1.20;;;;;;;;;;5053514;28;20414;-69
2022/04/24 14:14:53;;;;;;;1.00;1.00;;;;;;;;;;5053508;28;20880;-65
2022/04/24 14:17:19;;;;;;;1.47;1.40;;;;;;;;;;5053587;28;20443;-69
2022/04/24 14:19:45;;;;;;;1.30;1.30;;;;;;;;;;5053675;28;20904;-72
2022/04/24 14:22:12;;;;;;;1.30;1.30;;;;;;;;;;5053578;28;20465;-71
2022/04/24 14:24:38;;;;;;;1.40;1.40;;;;;;;;;;5053521;28;20867;-72
2022/04/24 14:27:04;;;;;;;1.47;1.37;;;;;;;;;;5052037;28;20423;-70
2022/04/24 14:29:30;;;;;;;1.47;1.47;;;;;;;;;;5053408;28;20399;-69
2022/04/24 14:31:56;;;;;;;1.90;1.90;;;;;;;;;;5053283;28;20446;-69
2022/04/24 14:34:24;;;;;;;1.30;1.30;;;;;;;;;;5053268;28;20443;-65
2022/04/24 14:36:50;;;;;;;1.57;1.57;;;;;;;;;;5053588;28;20465;-64
2022/04/24 14:39:16;;;;;;;2.57;2.47;;;;;;;;;;5053326;28;20877;-64
2022/04/24 14:41:42;;;;;;;1.50;1.50;;;;;;;;;;5053077;28;20490;-64
2022/04/24 14:44:08;;;;;;;1.53;1.43;;;;;;;;;;5053197;28;20772;-69
2022/04/24 14:57:33;;;;;;;3.80;1.23;;;;;;;;;;5053084;28;20913;-68